createdAt,value
2023-01-13T00:00:24.509Z,98010.38
2023-01-13T00:03:16.883Z,98007.34
2023-01-13T00:05:49.474Z,97997.35
2023-01-13T00:08:23.418Z,97994.89
2023-01-13T00:10:58.990Z,97995.65
2023-01-13T00:13:35.594Z,98004.61
2023-01-13T00:16:09.933Z,98002.81
2023-01-13T00:18:42.474Z,98000.70
2023-01-13T00:21:17.540Z,98004.71
2023-01-13T00:23:50.991Z,98002.64
2023-01-13T00:26:25.514Z,97999.45
2023-01-13T00:29:01.277Z,98003.02
2023-01-13T00:31:36.386Z,98002.07
2023-01-13T00:34:15.995Z,98004.05
2023-01-13T00:36:48.547Z,98003.35
2023-01-13T00:39:21.584Z,98005.23
2023-01-13T00:42:12.464Z,97999.96
2023-01-13T00:44:44.976Z,97999.88
2023-01-13T00:47:17.331Z,98006.66
2023-01-13T00:49:50.069Z,98009.85
2023-01-13T00:52:22.496Z,98001.79
2023-01-13T00:54:54.803Z,97997.02
2023-01-13T00:57:27.810Z,97993.77
2023-01-13T01:00:03.584Z,97994.02
2023-01-13T01:02:36.204Z,97994.23
2023-01-13T01:05:10.468Z,97993.00
2023-01-13T01:07:42.745Z,97992.73
2023-01-13T01:10:15.624Z,97985.43
2023-01-13T01:12:48.226Z,97977.80
2023-01-13T01:15:20.777Z,97972.48
2023-01-13T01:17:53.849Z,97969.85
2023-01-13T01:20:26.568Z,97966.42
2023-01-13T01:22:58.931Z,97967.64
2023-01-13T01:25:31.348Z,97967.84
2023-01-13T01:28:04.211Z,97967.91
2023-01-13T01:30:36.569Z,97961.84
2023-01-13T01:33:08.981Z,97952.30
2023-01-13T01:35:43.255Z,97947.38
2023-01-13T01:38:15.738Z,97942.64
2023-01-13T01:40:48.677Z,97935.80
2023-01-13T01:43:40.175Z,97931.09
2023-01-13T01:46:14.520Z,97930.77
2023-01-13T01:48:46.995Z,97923.39
2023-01-13T01:51:19.397Z,97922.65
2023-01-13T01:53:51.900Z,97925.55
2023-01-13T01:56:24.658Z,97926.80
2023-01-13T01:59:03.937Z,97920.04
2023-01-13T02:01:38.410Z,97920.77
2023-01-13T02:04:17.877Z,97919.70
2023-01-13T02:06:51.989Z,97918.88
2023-01-13T02:09:25.964Z,97918.60
2023-01-13T02:12:16.309Z,97912.77
2023-01-13T02:14:48.727Z,97913.48
2023-01-13T02:17:32.163Z,97911.34
2023-01-13T02:20:30.137Z,97908.71
2023-01-13T02:23:55.270Z,97904.63
2023-01-13T02:26:57.720Z,97904.15
2023-01-13T02:30:11.817Z,97899.00
2023-01-13T02:32:57.808Z,97898.00
2023-01-13T02:35:38.056Z,97896.88
2023-01-13T02:38:12.507Z,97892.95
2023-01-13T02:40:50.268Z,97886.43
2023-01-13T02:44:01.836Z,97881.81
2023-01-13T02:46:44.025Z,97884.66
2023-01-13T02:49:22.994Z,97885.52
2023-01-13T02:51:57.934Z,97879.54
2023-01-13T02:54:33.024Z,97870.96
2023-01-13T02:57:11.658Z,97867.73
2023-01-13T02:59:45.353Z,97872.05
2023-01-13T03:02:21.442Z,97871.18
2023-01-13T03:04:59.079Z,97870.56
2023-01-13T03:07:58.662Z,97863.89
2023-01-13T03:10:48.053Z,97863.11
2023-01-13T03:13:43.832Z,97862.16
2023-01-13T03:16:24.598Z,97853.66
2023-01-13T03:19:08.650Z,97850.57
2023-01-13T03:21:49.520Z,97852.92
2023-01-13T03:24:27.567Z,97853.50
2023-01-13T03:27:07.136Z,97847.66
2023-01-13T03:29:48.032Z,97853.83
2023-01-13T03:32:28.737Z,97850.60
2023-01-13T03:35:06.364Z,97849.49
2023-01-13T03:37:42.348Z,97854.20
2023-01-13T03:40:23.183Z,97850.00
2023-01-13T03:43:19.457Z,97845.46
2023-01-13T03:45:57.811Z,97842.50
2023-01-13T03:48:34.482Z,97846.61
2023-01-13T03:51:11.144Z,97846.13
2023-01-13T03:53:50.016Z,97843.63
2023-01-13T03:56:29.209Z,97842.58
2023-01-13T03:59:05.207Z,97848.63
2023-01-13T04:01:44.141Z,97850.97
2023-01-13T04:04:21.235Z,97848.05
2023-01-13T04:07:03.617Z,97850.59
2023-01-13T04:09:45.823Z,97847.27
2023-01-13T04:12:48.762Z,97850.23
2023-01-13T04:15:23.892Z,97846.17
2023-01-13T04:18:10.402Z,97843.30
2023-01-13T04:20:44.911Z,97847.55
2023-01-13T04:23:18.889Z,97845.02
2023-01-13T04:25:52.806Z,97844.48
2023-01-13T04:28:25.647Z,97836.56
2023-01-13T04:30:58.250Z,97839.71
2023-01-13T04:33:30.821Z,97837.25
2023-01-13T04:36:03.434Z,97837.77
2023-01-13T04:38:38.802Z,97838.27
2023-01-13T04:41:14.750Z,97835.19
2023-01-13T04:43:47.631Z,97820.90
2023-01-13T04:46:20.295Z,97815.55
2023-01-13T04:48:52.936Z,97821.86
2023-01-13T04:51:28.658Z,97821.17
2023-01-13T04:54:03.542Z,97824.52
2023-01-13T04:56:38.562Z,97830.16
2023-01-13T04:59:15.306Z,97835.46
2023-01-13T05:01:47.840Z,97831.33
2023-01-13T05:04:23.523Z,97834.32
2023-01-13T05:07:00.831Z,97839.10
2023-01-13T05:09:33.351Z,97827.58
2023-01-13T05:12:23.964Z,97827.81
2023-01-13T05:15:17.135Z,97829.92
2023-01-13T05:17:50.112Z,97829.39
2023-01-13T05:20:23.184Z,97827.40
2023-01-13T05:23:13.553Z,97831.73
2023-01-13T05:25:49.533Z,97843.33
2023-01-13T05:28:22.050Z,97849.33
2023-01-13T05:30:58.254Z,97848.80
2023-01-13T05:33:31.327Z,97847.83
2023-01-13T05:36:06.673Z,97852.67
2023-01-13T05:38:39.054Z,97851.69
2023-01-13T05:41:30.482Z,97851.52
2023-01-13T05:44:02.854Z,97856.35
2023-01-13T05:46:35.189Z,97855.90
2023-01-13T05:49:07.598Z,97854.73
2023-01-13T05:51:39.883Z,97853.39
2023-01-13T05:54:12.292Z,97849.06
2023-01-13T05:56:44.657Z,97846.34
2023-01-13T05:59:19.561Z,97845.41
2023-01-13T06:01:51.889Z,97838.48
2023-01-13T06:04:28.024Z,97838.98
2023-01-13T06:07:00.718Z,97842.99
2023-01-13T06:09:34.367Z,97849.40
2023-01-13T06:12:07.901Z,97846.39
2023-01-13T06:14:41.190Z,97847.83
2023-01-13T06:17:15.101Z,97847.35
2023-01-13T06:19:47.488Z,97849.19
2023-01-13T06:22:23.488Z,97849.16
2023-01-13T06:24:56.238Z,97844.38
2023-01-13T06:27:30.455Z,97843.77
2023-01-13T06:30:03.235Z,97846.64
2023-01-13T06:32:39.957Z,97843.74
2023-01-13T06:35:16.929Z,97842.10
2023-01-13T06:37:52.907Z,97845.45
2023-01-13T06:40:25.810Z,97849.75
2023-01-13T06:43:17.729Z,97851.17
2023-01-13T06:45:53.769Z,97845.48
2023-01-13T06:48:29.169Z,97847.08
2023-01-13T06:51:01.848Z,97842.86
2023-01-13T06:53:34.460Z,97846.77
2023-01-13T06:56:07.282Z,97836.86
2023-01-13T06:58:39.976Z,97840.33
2023-01-13T07:01:12.509Z,97843.08
2023-01-13T07:03:45.125Z,97840.18
2023-01-13T07:06:17.493Z,97839.91
2023-01-13T07:08:49.796Z,97837.86
2023-01-13T07:11:22.230Z,97846.42
2023-01-13T07:14:12.222Z,97851.14
2023-01-13T07:29:51.869Z,97852.28
2023-01-13T07:32:25.160Z,97851.23
2023-01-13T07:34:58.756Z,97855.52
2023-01-13T07:37:31.550Z,97856.16
2023-01-13T07:43:33.947Z,97863.61
2023-01-13T07:46:07.769Z,97863.39
2023-01-13T07:48:40.372Z,97860.09
2023-01-13T07:51:14.276Z,97855.85
2023-01-13T07:53:46.941Z,97852.07
2023-01-13T07:56:20.798Z,97856.59
2023-01-13T07:58:53.439Z,97851.42
2023-01-13T08:01:27.920Z,97856.64
2023-01-13T08:04:00.826Z,97854.70
2023-01-13T08:06:33.179Z,97855.00
2023-01-13T08:09:05.908Z,97855.60
2023-01-13T08:11:39.589Z,97854.79
2023-01-13T08:14:11.970Z,97853.73
2023-01-13T08:16:44.531Z,97851.74
2023-01-13T08:19:17.968Z,97851.39
2023-01-13T08:21:50.427Z,97849.02
2023-01-13T08:24:22.846Z,97848.22
2023-01-13T08:26:55.287Z,97845.45
2023-01-13T08:29:27.715Z,97845.70
2023-01-13T08:32:00.020Z,97844.33
2023-01-13T08:34:32.301Z,97844.95
2023-01-13T08:37:04.680Z,97848.17
2023-01-13T08:39:37.261Z,97854.35
2023-01-13T08:42:09.598Z,97853.91
2023-01-13T08:44:42.277Z,97850.72
2023-01-13T08:47:14.555Z,97849.13
2023-01-13T08:49:47.192Z,97853.05
2023-01-13T08:52:19.429Z,97853.07
2023-01-13T08:54:51.861Z,97853.75
2023-01-13T08:57:24.332Z,97856.88
2023-01-13T08:59:56.759Z,97849.75
2023-01-13T09:02:29.383Z,97856.61
2023-01-13T09:05:03.915Z,97857.02
2023-01-13T09:07:37.907Z,97854.64
2023-01-13T09:10:11.896Z,97852.95
2023-01-13T09:13:04.073Z,97855.04
2023-01-13T09:15:36.462Z,97849.29
2023-01-13T09:18:09.451Z,97846.46
2023-01-13T09:20:42.021Z,97844.76
2023-01-13T09:23:15.771Z,97846.71
2023-01-13T09:25:49.324Z,97848.30
2023-01-13T09:28:21.690Z,97842.66
2023-01-13T09:30:54.096Z,97837.02
2023-01-13T09:33:44.024Z,97835.60
2023-01-13T09:36:16.776Z,97827.06
2023-01-13T09:38:51.902Z,97820.86
2023-01-13T09:41:47.943Z,97821.88
2023-01-13T09:44:25.326Z,97815.13
2023-01-13T09:47:02.063Z,97820.02
2023-01-13T09:49:38.728Z,97812.71
2023-01-13T09:52:19.430Z,97802.65
2023-01-13T09:54:57.253Z,97814.59
2023-01-13T09:57:33.806Z,97821.59
2023-01-13T10:00:12.030Z,97814.92
2023-01-13T10:03:11.575Z,97813.30
2023-01-13T10:05:46.352Z,97809.81
2023-01-13T10:08:24.135Z,97792.89
2023-01-13T10:10:58.804Z,97757.41
2023-01-13T10:13:33.407Z,97761.31
2023-01-13T10:16:25.217Z,97756.20
2023-01-13T10:19:12.624Z,97740.25
2023-01-13T10:22:09.506Z,97751.61
2023-01-13T10:25:24.257Z,97748.88
2023-01-13T10:28:04.400Z,97764.20
2023-01-13T10:30:43.213Z,97755.81
2023-01-13T10:33:19.069Z,97757.67
2023-01-13T10:35:55.099Z,97745.15
2023-01-13T10:38:37.778Z,97737.98
2023-01-13T10:41:29.362Z,97726.33
2023-01-13T10:44:04.572Z,97724.68
2023-01-13T10:46:52.413Z,97734.48
2023-01-13T10:49:34.178Z,97725.14
2023-01-13T10:52:25.454Z,97721.49
2023-01-13T10:54:58.292Z,97726.33
2023-01-13T10:57:37.023Z,97729.20
2023-01-13T11:00:29.666Z,97738.71
2023-01-13T11:03:19.843Z,97732.43
2023-01-13T11:05:54.936Z,97735.11
2023-01-13T11:08:29.388Z,97728.21
2023-01-13T11:11:02.632Z,97729.71
2023-01-13T11:13:58.611Z,97733.86
2023-01-13T11:16:31.618Z,97733.23
2023-01-13T11:19:12.903Z,97736.05
2023-01-13T11:21:51.026Z,97732.75
2023-01-13T11:24:30.836Z,97737.25
2023-01-13T11:27:12.392Z,97735.84
2023-01-13T11:29:58.978Z,97727.58
2023-01-13T11:32:37.243Z,97721.06
2023-01-13T11:35:19.212Z,97725.25
2023-01-13T11:37:55.855Z,97713.52
2023-01-13T11:40:37.615Z,97712.86
2023-01-13T11:43:19.456Z,97709.73
2023-01-13T11:45:56.129Z,97700.83
2023-01-13T11:48:32.180Z,97701.19
2023-01-13T11:51:13.038Z,97699.77
2023-01-13T11:53:59.455Z,97707.08
2023-01-13T11:56:52.500Z,97706.59
2023-01-13T12:00:00.398Z,97709.21
2023-01-13T12:02:48.958Z,97701.59
2023-01-13T12:05:35.377Z,97694.29
2023-01-13T12:08:18.278Z,97697.60
2023-01-13T12:11:02.573Z,97692.78
2023-01-13T12:13:46.967Z,97693.55
2023-01-13T12:16:24.657Z,97685.30
2023-01-13T12:19:17.948Z,97673.61
2023-01-13T12:22:14.566Z,97683.25
2023-01-13T12:24:54.541Z,97681.73
2023-01-13T12:27:33.880Z,97679.60
2023-01-13T12:30:23.565Z,97677.21
2023-01-13T12:33:10.850Z,97677.30
2023-01-13T12:35:52.570Z,97680.11
2023-01-13T12:38:35.448Z,97677.83
2023-01-13T12:41:16.990Z,97686.46
2023-01-13T12:44:09.654Z,97690.18
2023-01-13T12:46:56.355Z,97689.96
2023-01-13T12:49:36.623Z,97693.17
2023-01-13T12:52:19.917Z,97703.95
2023-01-13T12:55:20.320Z,97703.27
2023-01-13T12:58:16.437Z,97700.74
2023-01-13T13:01:12.131Z,97699.39
2023-01-13T13:04:05.387Z,97702.02
2023-01-13T13:06:43.274Z,97709.86
2023-01-13T13:09:22.453Z,97711.22
2023-01-13T13:12:12.662Z,97709.90
2023-01-13T13:15:07.066Z,97714.70
2023-01-13T13:18:02.531Z,97718.14
2023-01-13T13:20:57.476Z,97723.67
2023-01-13T13:23:44.266Z,97725.90
2023-01-13T13:26:32.897Z,97727.96
2023-01-13T13:29:29.996Z,97727.67
2023-01-13T13:32:21.895Z,97727.67
2023-01-13T13:35:04.273Z,97737.50
2023-01-13T13:38:10.195Z,97740.83
2023-01-13T13:41:03.417Z,97735.58
2023-01-13T13:43:57.694Z,97739.23
2023-01-13T13:46:50.845Z,97738.35
2023-01-13T13:49:37.565Z,97743.26
2023-01-13T13:52:15.932Z,97745.38
2023-01-13T13:54:53.724Z,97746.95
2023-01-13T13:57:33.954Z,97745.38
2023-01-13T14:00:21.668Z,97751.15
2023-01-13T14:02:56.073Z,97753.11
2023-01-13T14:05:31.113Z,97749.47
2023-01-13T14:08:08.663Z,97744.64
2023-01-13T14:10:43.227Z,97744.41
2023-01-13T14:13:23.322Z,97755.77
2023-01-13T14:16:00.946Z,97768.14
2023-01-13T14:18:41.047Z,97770.52
2023-01-13T14:21:23.906Z,97766.67
2023-01-13T14:23:59.141Z,97773.87
2023-01-13T14:26:33.184Z,97772.98
2023-01-13T14:29:06.445Z,97776.16
2023-01-13T14:31:39.776Z,97782.40
2023-01-13T14:34:31.469Z,97783.73
2023-01-13T14:37:22.700Z,97780.30
2023-01-13T14:39:55.501Z,97781.08
2023-01-13T14:42:29.852Z,97785.33
2023-01-13T14:45:03.496Z,97788.44
2023-01-13T14:47:39.605Z,97789.23
2023-01-13T14:50:22.928Z,97794.33
2023-01-13T14:52:57.305Z,97796.73
2023-01-13T14:55:33.684Z,97796.00
2023-01-13T14:58:28.486Z,97791.46
2023-01-13T15:01:36.475Z,97785.88
2023-01-13T15:04:28.647Z,97796.39
2023-01-13T15:07:02.525Z,97800.80
2023-01-13T15:09:42.838Z,97791.30
2023-01-13T15:12:37.921Z,97804.70
2023-01-13T15:15:25.136Z,97810.04
2023-01-13T15:17:58.173Z,97804.46
2023-01-13T15:20:30.777Z,97803.67
2023-01-13T15:23:03.113Z,97802.83
2023-01-13T15:25:36.857Z,97809.27
2023-01-13T15:28:16.889Z,97802.27
2023-01-13T15:30:49.909Z,97805.13
2023-01-13T15:33:23.886Z,97809.83
2023-01-13T15:35:57.322Z,97805.67
2023-01-13T15:38:29.651Z,97805.30
2023-01-13T15:41:01.914Z,97803.83
2023-01-13T15:43:51.983Z,97802.60
2023-01-13T15:46:40.441Z,97800.39
2023-01-13T15:49:22.732Z,97803.27
2023-01-13T15:51:55.463Z,97806.58
2023-01-13T15:54:27.759Z,97816.17
2023-01-13T15:57:00.976Z,97816.96
2023-01-13T15:59:33.937Z,97814.89
2023-01-13T16:02:11.256Z,97822.88
2023-01-13T16:04:43.505Z,97823.81
2023-01-13T16:07:19.156Z,97827.33
2023-01-13T16:09:54.981Z,97823.80
2023-01-13T16:12:27.279Z,97818.29
2023-01-13T16:15:00.630Z,97819.38
2023-01-13T16:17:36.916Z,97827.98
2023-01-13T16:20:16.541Z,97827.27
2023-01-13T16:22:48.895Z,97831.21
2023-01-13T16:25:24.657Z,97833.55
2023-01-13T16:27:57.323Z,97833.47
2023-01-13T16:30:32.141Z,97839.77
2023-01-13T16:33:05.001Z,97839.52
2023-01-13T16:35:37.430Z,97838.95
2023-01-13T16:38:19.902Z,97834.48
2023-01-13T16:40:52.438Z,97837.42
2023-01-13T16:43:28.122Z,97835.82
2023-01-13T16:46:00.865Z,97842.17
2023-01-13T16:48:33.386Z,97847.67
2023-01-13T16:51:05.826Z,97848.20
2023-01-13T16:53:38.193Z,97853.13
2023-01-13T16:56:22.730Z,97852.46
2023-01-13T16:58:56.383Z,97855.32
2023-01-13T17:01:30.743Z,97853.59
2023-01-13T17:04:03.625Z,97858.55
2023-01-13T17:06:40.980Z,97858.98
2023-01-13T17:09:19.726Z,97857.15
2023-01-13T17:11:53.081Z,97859.45
2023-01-13T17:14:26.545Z,97864.30
2023-01-13T17:17:02.287Z,97869.17
2023-01-13T17:19:34.592Z,97869.29
2023-01-13T17:22:07.277Z,97877.95
2023-01-13T17:24:39.629Z,97878.69
2023-01-13T17:27:12.825Z,97880.17
2023-01-13T17:29:45.882Z,97878.94
2023-01-13T17:32:23.040Z,97875.52
2023-01-13T17:34:55.498Z,97877.48
2023-01-13T17:37:28.236Z,97878.52
2023-01-13T17:40:00.589Z,97876.59
2023-01-13T17:42:33.274Z,97879.65
2023-01-13T17:45:06.266Z,97878.38
2023-01-13T17:47:38.608Z,97873.70
2023-01-13T17:50:15.332Z,97874.48
2023-01-13T17:52:47.618Z,97882.42
2023-01-13T17:55:20.167Z,97878.15
2023-01-13T17:57:52.484Z,97887.70
2023-01-13T18:00:25.358Z,97893.17
2023-01-13T18:02:57.659Z,97902.25
2023-01-13T18:05:34.167Z,97911.38
2023-01-13T18:08:06.975Z,97919.58
2023-01-13T18:10:41.673Z,97926.74
2023-01-13T18:13:16.114Z,97932.15
2023-01-13T18:15:49.207Z,97932.42
2023-01-13T18:18:24.048Z,97922.25
2023-01-13T18:21:14.057Z,97915.42
2023-01-13T18:24:04.163Z,97914.86
2023-01-13T18:26:54.349Z,97915.94
2023-01-13T18:29:26.686Z,97914.63
2023-01-13T18:31:58.956Z,97914.82
2023-01-13T18:34:31.203Z,97908.45
2023-01-13T18:37:03.647Z,97902.56
2023-01-13T18:39:37.455Z,97907.20
2023-01-13T18:42:29.636Z,97910.27
2023-01-13T18:45:01.985Z,97913.16
2023-01-13T18:47:34.755Z,97923.16
2023-01-13T18:50:08.539Z,97927.52
2023-01-13T18:52:41.204Z,97928.48
2023-01-13T18:55:13.817Z,97928.80
2023-01-13T18:57:46.351Z,97931.45
2023-01-13T19:00:22.611Z,97935.48
2023-01-13T19:05:39.386Z,97938.67
2023-01-13T19:08:12.672Z,97944.55
2023-01-13T19:10:46.565Z,97942.84
2023-01-13T19:13:18.980Z,97939.45
2023-01-13T19:15:51.407Z,97945.05
2023-01-13T19:18:24.177Z,97939.89
2023-01-13T19:20:56.519Z,97938.56
2023-01-13T19:23:28.918Z,97941.52
2023-01-13T19:26:03.360Z,97944.48
2023-01-13T19:28:35.869Z,97948.21
2023-01-13T19:31:10.750Z,97954.88
2023-01-13T19:33:43.126Z,97962.80
2023-01-13T19:36:15.401Z,97965.00
2023-01-13T19:38:47.743Z,97960.69
2023-01-13T19:41:33.801Z,97962.11
2023-01-13T19:44:24.171Z,97969.91
2023-01-13T19:46:58.797Z,97968.06
2023-01-13T19:49:31.390Z,97969.38
2023-01-13T19:52:03.619Z,97966.65
2023-01-13T19:54:36.258Z,97974.52
2023-01-13T19:57:09.078Z,97973.95
2023-01-13T19:59:41.790Z,97969.78
2023-01-13T20:02:27.589Z,97970.77
2023-01-13T20:05:02.019Z,97967.95
2023-01-13T20:07:36.237Z,97975.59
2023-01-13T20:10:11.095Z,97981.04
2023-01-13T20:12:43.649Z,97985.69
2023-01-13T20:15:20.459Z,97994.52
2023-01-13T20:17:52.999Z,98002.14
2023-01-13T20:20:26.479Z,98011.55
2023-01-13T20:22:59.735Z,98025.90
2023-01-13T20:25:32.150Z,98026.16
2023-01-13T20:28:04.735Z,98025.71
2023-01-13T20:30:37.164Z,98030.54
2023-01-13T20:33:12.634Z,98034.52
2023-01-13T20:35:57.460Z,98037.65
2023-01-13T20:38:36.130Z,98049.59
2023-01-13T20:41:24.472Z,98064.49
2023-01-13T20:43:57.408Z,98074.33
2023-01-13T20:46:29.836Z,98080.04
2023-01-13T20:49:02.294Z,98085.64
2023-01-13T20:51:37.124Z,98088.28
2023-01-13T20:54:10.035Z,98091.14
2023-01-13T20:56:42.665Z,98091.59
2023-01-13T20:59:15.573Z,98085.08
2023-01-13T21:05:04.966Z,98089.51
2023-01-13T21:07:37.427Z,98089.77
2023-01-13T21:10:13.529Z,98084.92
2023-01-13T21:13:05.017Z,98084.42
2023-01-13T21:15:37.930Z,98081.77
2023-01-13T21:18:28.317Z,98087.58
2023-01-13T21:21:13.317Z,98091.02
2023-01-13T21:23:47.694Z,98096.05
2023-01-13T21:26:21.875Z,98107.22
2023-01-13T21:28:57.030Z,98115.59
2023-01-13T21:31:30.044Z,98119.96
2023-01-13T21:34:05.231Z,98120.47
2023-01-13T21:36:37.709Z,98118.06
2023-01-13T21:39:10.704Z,98120.19
2023-01-13T21:42:00.634Z,98119.42
2023-01-13T21:44:50.686Z,98123.15
2023-01-13T21:47:40.830Z,98119.79
2023-01-13T21:50:14.646Z,98123.23
2023-01-13T21:52:48.079Z,98123.32
2023-01-13T21:55:24.752Z,98125.80
2023-01-13T21:57:58.735Z,98121.71
2023-01-13T22:00:34.199Z,98124.55
2023-01-13T22:03:08.110Z,98124.80
2023-01-13T22:05:40.762Z,98125.60
2023-01-13T22:08:15.143Z,98127.39
2023-01-13T22:10:59.426Z,98128.75
2023-01-13T22:13:49.713Z,98130.41
2023-01-13T22:16:21.967Z,98126.26
2023-01-13T22:18:54.837Z,98128.96
2023-01-13T22:21:27.200Z,98133.35
2023-01-13T22:24:00.552Z,98127.52
2023-01-13T22:26:33.226Z,98133.52
2023-01-13T22:29:05.573Z,98133.81
2023-01-13T22:31:39.135Z,98132.70
2023-01-13T22:34:14.560Z,98138.17
2023-01-13T22:36:46.852Z,98137.11
2023-01-13T22:39:20.070Z,98132.55
2023-01-13T22:41:52.728Z,98133.94
2023-01-13T22:44:25.388Z,98136.38
2023-01-13T22:46:57.776Z,98139.08
2023-01-13T22:49:30.110Z,98142.36
2023-01-13T22:52:02.423Z,98144.21
2023-01-13T22:54:35.095Z,98139.88
2023-01-13T22:57:07.451Z,98136.45
2023-01-13T22:59:39.796Z,98137.67
2023-01-13T23:02:12.452Z,98140.34
2023-01-13T23:04:45.254Z,98138.41
2023-01-13T23:07:17.770Z,98136.89
2023-01-13T23:09:52.850Z,98136.38
2023-01-13T23:12:25.229Z,98137.65
2023-01-13T23:14:57.815Z,98143.48
2023-01-13T23:17:30.246Z,98145.62
2023-01-13T23:20:02.840Z,98148.02
2023-01-13T23:22:38.744Z,98148.80
2023-01-13T23:25:13.198Z,98147.91
2023-01-13T23:27:45.546Z,98147.98
2023-01-13T23:30:17.998Z,98152.81
2023-01-13T23:32:50.486Z,98160.09
2023-01-13T23:35:23.296Z,98158.39
2023-01-13T23:38:01.947Z,98163.35
2023-01-13T23:40:36.340Z,98169.89
2023-01-13T23:43:08.659Z,98174.05
2023-01-13T23:45:40.977Z,98170.41
2023-01-13T23:48:15.123Z,98177.13
2023-01-13T23:50:57.167Z,98178.14
2023-01-13T23:53:33.713Z,98178.21
2023-01-13T23:56:13.935Z,98179.16
2023-01-13T23:58:49.200Z,98183.33
